createdAt,value
2023-02-07T00:01:14.951Z,3.08
2023-02-07T00:03:41.699Z,2.80
2023-02-07T00:06:11.114Z,3.40
2023-02-07T00:08:39.247Z,3.45
2023-02-07T00:11:07.990Z,3.80
2023-02-07T00:13:34.874Z,3.63
2023-02-07T00:16:02.334Z,3.05
2023-02-07T00:18:28.935Z,3.53
2023-02-07T00:21:06.676Z,3.75
2023-02-07T00:23:34.591Z,3.67
2023-02-07T00:26:01.827Z,3.38
2023-02-07T00:28:28.521Z,3.47
2023-02-07T00:31:13.593Z,3.33
2023-02-07T00:33:41.417Z,3.50
2023-02-07T00:36:11.270Z,3.33
2023-02-07T00:38:37.957Z,3.92
2023-02-07T00:41:04.919Z,3.88
2023-02-07T00:43:31.893Z,3.35
2023-02-07T00:46:00.011Z,3.60
2023-02-07T00:48:27.818Z,4.05
2023-02-07T00:50:54.998Z,3.05
2023-02-07T00:53:22.553Z,3.47
2023-02-07T00:55:49.198Z,3.50
2023-02-07T00:58:15.775Z,4.13
2023-02-07T01:00:42.940Z,3.92
2023-02-07T01:03:09.500Z,3.30
2023-02-07T01:05:36.586Z,4.72
2023-02-07T01:08:03.714Z,4.68
2023-02-07T01:10:30.473Z,4.32
2023-02-07T01:12:57.096Z,4.32
2023-02-07T01:15:24.026Z,4.15
2023-02-07T01:17:50.740Z,3.67
2023-02-07T01:20:18.970Z,3.13
2023-02-07T01:22:47.111Z,3.22
2023-02-07T01:25:15.156Z,3.10
2023-02-07T01:27:43.430Z,3.95
2023-02-07T01:30:12.339Z,3.05
2023-02-07T01:32:40.404Z,3.72
2023-02-07T01:35:08.911Z,3.45
2023-02-07T01:37:37.427Z,3.47
2023-02-07T01:40:06.349Z,3.17
2023-02-07T01:42:34.196Z,4.10
2023-02-07T01:45:07.162Z,3.78
2023-02-07T01:47:37.943Z,3.50
2023-02-07T01:50:06.406Z,4.18
2023-02-07T01:52:38.472Z,3.40
2023-02-07T01:55:10.588Z,4.22
2023-02-07T01:57:37.616Z,3.40
2023-02-07T02:00:05.237Z,3.03
2023-02-07T02:02:35.267Z,3.78
2023-02-07T02:05:03.478Z,4.10
2023-02-07T02:07:32.864Z,3.58
2023-02-07T02:10:00.760Z,3.95
2023-02-07T02:12:52.968Z,3.20
2023-02-07T02:21:18.767Z,4.03
2023-02-07T02:26:45.114Z,3.60
2023-02-07T02:40:41.888Z,6.43
2023-02-07T02:43:18.799Z,4.28
2023-02-07T02:45:50.670Z,4.25
2023-02-07T02:48:17.668Z,4.05
2023-02-07T02:50:47.136Z,3.85
2023-02-07T02:53:14.981Z,3.83
2023-02-07T02:58:50.372Z,4.63
2023-02-07T03:04:27.849Z,3.85
2023-02-07T03:16:14.772Z,3.47
2023-02-07T03:21:26.830Z,4.68
2023-02-07T03:23:57.252Z,3.63
2023-02-07T03:26:25.186Z,3.97
2023-02-07T03:28:54.996Z,4.50
2023-02-07T03:31:25.283Z,3.85
2023-02-07T03:33:59.160Z,3.83
2023-02-07T03:36:33.939Z,5.13
2023-02-07T03:39:00.647Z,3.88
2023-02-07T03:41:34.030Z,4.55
2023-02-07T03:44:07.029Z,4.35
2023-02-07T03:46:37.011Z,4.38
2023-02-07T03:49:04.517Z,3.50
2023-02-07T03:51:31.216Z,4.20
2023-02-07T03:53:57.754Z,6.63
2023-02-07T03:56:24.517Z,4.10
2023-02-07T03:58:51.193Z,3.65
2023-02-07T04:01:17.871Z,4.07
2023-02-07T04:03:44.509Z,3.67
2023-02-07T04:06:11.322Z,4.10
2023-02-07T04:08:37.855Z,4.88
2023-02-07T04:11:05.054Z,3.95
2023-02-07T04:13:31.617Z,3.67
2023-02-07T04:15:58.582Z,4.07
2023-02-07T04:18:25.354Z,3.40
2023-02-07T04:20:51.921Z,4.18
2023-02-07T04:23:18.467Z,3.50
2023-02-07T04:25:45.028Z,4.57
2023-02-07T04:28:11.637Z,3.45
2023-02-07T04:30:38.192Z,5.13
2023-02-07T04:33:05.429Z,3.38
2023-02-07T04:35:31.963Z,4.72
2023-02-07T04:37:58.540Z,4.85
2023-02-07T04:40:25.069Z,3.67
2023-02-07T04:42:51.653Z,4.07
2023-02-07T04:45:18.215Z,5.20
2023-02-07T04:47:44.883Z,3.38
2023-02-07T04:50:11.421Z,5.28
2023-02-07T04:52:40.403Z,4.78
2023-02-07T04:55:08.159Z,4.15
2023-02-07T04:57:35.048Z,3.40
2023-02-07T05:00:01.890Z,3.92
2023-02-07T05:02:28.436Z,5.40
2023-02-07T05:04:55.007Z,3.40
2023-02-07T05:07:21.593Z,3.83
2023-02-07T05:09:48.114Z,4.55
2023-02-07T05:12:14.665Z,5.13
2023-02-07T05:14:41.218Z,4.05
2023-02-07T05:17:07.799Z,5.82
2023-02-07T05:19:34.361Z,5.35
2023-02-07T05:22:00.879Z,3.92
2023-02-07T05:24:27.466Z,4.20
2023-02-07T05:26:54.046Z,4.38
2023-02-07T05:29:20.584Z,4.20
2023-02-07T05:32:07.074Z,4.18
2023-02-07T05:34:33.750Z,3.88
2023-02-07T05:37:00.280Z,3.83
2023-02-07T05:39:26.999Z,4.55
2023-02-07T05:41:53.570Z,4.82
2023-02-07T05:44:20.096Z,4.57
2023-02-07T05:46:46.682Z,4.35
2023-02-07T05:49:13.243Z,4.05
2023-02-07T05:51:39.826Z,5.78
2023-02-07T05:54:06.394Z,4.88
2023-02-07T05:56:33.008Z,4.07
2023-02-07T05:58:59.579Z,5.65
2023-02-07T06:01:26.141Z,3.70
2023-02-07T06:03:52.821Z,5.25
2023-02-07T06:06:19.408Z,3.55
2023-02-07T06:08:45.937Z,6.28
2023-02-07T06:11:12.487Z,4.70
2023-02-07T06:13:39.435Z,5.00
2023-02-07T06:16:06.282Z,5.40
2023-02-07T06:18:32.836Z,5.18
2023-02-07T06:20:59.388Z,3.78
2023-02-07T06:23:25.978Z,3.15
2023-02-07T06:25:52.608Z,3.35
2023-02-07T06:28:19.198Z,5.47
2023-02-07T06:30:45.875Z,5.18
2023-02-07T06:33:12.466Z,4.97
2023-02-07T06:35:39.580Z,3.75
2023-02-07T06:38:06.337Z,3.63
2023-02-07T06:40:32.901Z,4.07
2023-02-07T06:42:59.448Z,4.55
2023-02-07T06:45:25.991Z,5.57
2023-02-07T06:47:52.551Z,5.03
2023-02-07T06:50:19.156Z,4.88
2023-02-07T06:52:45.810Z,7.32
2023-02-07T06:55:12.352Z,6.78
2023-02-07T06:57:38.974Z,5.80
2023-02-07T07:00:06.339Z,6.38
2023-02-07T07:02:33.097Z,6.20
2023-02-07T07:04:59.696Z,5.75
2023-02-07T07:07:26.370Z,5.82
2023-02-07T07:09:52.916Z,5.95
2023-02-07T07:12:19.585Z,5.63
2023-02-07T07:14:46.125Z,6.30
2023-02-07T07:17:12.943Z,6.22
2023-02-07T07:19:39.487Z,5.45
2023-02-07T07:22:06.057Z,5.72
2023-02-07T07:24:32.604Z,6.78
2023-02-07T07:26:59.221Z,7.13
2023-02-07T07:29:25.779Z,6.65
2023-02-07T07:31:52.451Z,8.98
2023-02-07T07:34:19.120Z,6.38
2023-02-07T07:36:45.787Z,6.32
2023-02-07T07:39:13.295Z,6.68
2023-02-07T07:41:39.881Z,7.22
2023-02-07T07:44:06.427Z,7.88
2023-02-07T07:46:33.058Z,8.80
2023-02-07T07:48:59.673Z,8.15
2023-02-07T07:51:26.308Z,7.65
2023-02-07T07:53:52.909Z,6.95
2023-02-07T07:56:19.457Z,3.83
2023-02-07T07:58:46.045Z,4.82
2023-02-07T08:01:12.590Z,3.60
2023-02-07T08:03:39.280Z,5.70
2023-02-07T08:06:06.340Z,6.93
2023-02-07T08:08:33.225Z,7.57
2023-02-07T08:11:02.265Z,7.72
2023-02-07T08:13:29.744Z,10.77
2023-02-07T08:15:59.471Z,21.02
2023-02-07T08:18:26.032Z,17.27
2023-02-07T08:20:52.588Z,16.52
2023-02-07T08:23:19.205Z,16.70
2023-02-07T08:25:46.898Z,10.98
2023-02-07T08:28:14.111Z,9.25
2023-02-07T08:30:40.947Z,9.82
2023-02-07T08:33:07.694Z,9.68
2023-02-07T08:35:34.358Z,10.02
2023-02-07T08:38:00.893Z,10.30
2023-02-07T08:40:27.754Z,10.85
2023-02-07T08:42:54.388Z,11.30
2023-02-07T08:45:21.006Z,10.50
2023-02-07T08:47:47.601Z,10.77
2023-02-07T08:50:15.421Z,12.23
2023-02-07T08:52:42.288Z,12.35
2023-02-07T08:55:09.194Z,10.15
2023-02-07T09:08:45.754Z,6.72
2023-02-07T09:11:12.378Z,7.72
2023-02-07T09:13:38.929Z,6.78
2023-02-07T09:16:05.771Z,7.25
2023-02-07T09:18:32.410Z,7.82
2023-02-07T09:20:58.954Z,7.47
2023-02-07T09:23:25.586Z,9.18
2023-02-07T09:25:53.172Z,7.93
2023-02-07T09:28:22.544Z,7.72
2023-02-07T09:30:49.475Z,7.93
2023-02-07T09:33:16.505Z,8.43
2023-02-07T09:35:46.532Z,8.85
2023-02-07T09:38:15.830Z,9.05
2023-02-07T09:40:43.574Z,9.05
2023-02-07T09:45:52.865Z,12.43
2023-02-07T09:48:25.052Z,16.52
2023-02-07T09:50:56.963Z,27.60
2023-02-07T09:53:28.157Z,14.63
2023-02-07T09:55:59.902Z,13.65
2023-02-07T10:01:30.181Z,14.80
2023-02-07T10:06:58.114Z,21.92
2023-02-07T10:09:29.151Z,25.58
2023-02-07T10:12:05.468Z,22.05
2023-02-07T10:20:03.321Z,9.88
2023-02-07T10:28:36.947Z,15.13
2023-02-07T10:31:12.181Z,11.25
2023-02-07T10:33:43.438Z,10.68
2023-02-07T10:36:14.962Z,9.75
2023-02-07T10:41:24.350Z,10.45
2023-02-07T10:43:51.574Z,9.57
2023-02-07T10:46:20.624Z,8.82
2023-02-07T10:48:48.514Z,10.80
2023-02-07T10:51:27.468Z,10.73
2023-02-07T10:54:13.399Z,10.13
2023-02-07T10:56:44.391Z,11.15
2023-02-07T10:59:46.876Z,10.07
2023-02-07T11:10:40.672Z,12.93
2023-02-07T11:13:27.858Z,11.32
2023-02-07T11:15:59.924Z,11.25
2023-02-07T11:21:07.306Z,9.95
2023-02-07T11:23:34.282Z,8.98
2023-02-07T11:26:03.616Z,9.00
2023-02-07T11:28:32.691Z,9.20
2023-02-07T11:31:05.847Z,7.78
2023-02-07T11:33:36.346Z,7.15
2023-02-07T11:36:23.409Z,7.03
2023-02-07T11:38:54.489Z,6.75
2023-02-07T11:46:39.518Z,6.60
2023-02-07T11:49:09.264Z,5.72
2023-02-07T11:51:36.478Z,5.97
2023-02-07T11:54:06.250Z,7.25
2023-02-07T11:56:38.716Z,6.88
2023-02-07T11:59:12.763Z,8.00
2023-02-07T12:01:39.747Z,7.63
2023-02-07T12:04:15.502Z,7.55
2023-02-07T16:08:36.043Z,28.45
2023-02-07T16:16:47.228Z,15.80
2023-02-07T16:22:01.815Z,7.75
2023-02-07T16:24:28.550Z,5.18
2023-02-07T16:26:56.155Z,6.68
2023-02-07T16:29:26.294Z,5.95
2023-02-07T16:31:54.448Z,8.20
2023-02-07T16:34:21.815Z,6.93
2023-02-07T16:36:51.031Z,7.80
2023-02-07T16:39:17.686Z,12.10
2023-02-07T16:41:47.467Z,11.85
2023-02-07T16:44:18.183Z,13.48
2023-02-07T16:46:44.709Z,12.65
2023-02-07T16:49:16.210Z,14.20
2023-02-07T16:51:44.121Z,9.68
2023-02-07T16:54:10.966Z,9.13
2023-02-07T16:56:37.767Z,9.52
2023-02-07T16:59:04.690Z,8.57
2023-02-07T17:01:31.592Z,8.63
2023-02-07T17:03:58.163Z,7.05
2023-02-07T17:06:24.844Z,7.55
2023-02-07T17:08:53.980Z,7.38
2023-02-07T17:11:26.564Z,8.32
2023-02-07T17:13:54.772Z,7.55
2023-02-07T17:16:22.639Z,9.00
2023-02-07T17:18:49.537Z,8.18
2023-02-07T17:21:16.607Z,8.43
2023-02-07T17:23:44.633Z,8.55
2023-02-07T17:26:21.794Z,8.65
2023-02-07T17:28:48.942Z,10.07
2023-02-07T17:31:15.665Z,8.00
2023-02-07T17:33:42.276Z,9.95
2023-02-07T17:36:12.654Z,12.27
2023-02-07T17:41:06.507Z,11.70
2023-02-07T17:43:33.492Z,11.05
2023-02-07T17:46:00.152Z,12.93
2023-02-07T17:48:30.342Z,9.80
2023-02-07T17:50:57.045Z,8.25
2023-02-07T17:53:23.652Z,7.53
2023-02-07T17:55:51.022Z,7.70
2023-02-07T17:58:18.478Z,7.18
2023-02-07T18:00:45.213Z,6.63
2023-02-07T18:03:11.952Z,6.57
2023-02-07T18:05:41.010Z,6.32
2023-02-07T18:08:10.213Z,5.95
2023-02-07T18:10:36.811Z,5.50
2023-02-07T18:13:03.464Z,5.95
2023-02-07T18:15:31.019Z,5.65
2023-02-07T18:17:57.759Z,5.75
2023-02-07T18:20:28.033Z,6.35
2023-02-07T18:22:56.315Z,6.32
2023-02-07T18:25:24.512Z,5.70
2023-02-07T18:27:51.976Z,5.57
2023-02-07T18:30:21.100Z,6.50
2023-02-07T18:32:48.419Z,6.18
2023-02-07T18:35:15.654Z,6.15
2023-02-07T18:37:42.402Z,5.88
2023-02-07T18:40:10.392Z,5.45
2023-02-07T18:42:37.076Z,5.95
2023-02-07T18:45:03.959Z,5.22
2023-02-07T18:47:32.663Z,6.28
2023-02-07T18:49:59.523Z,5.25
2023-02-07T18:52:26.123Z,6.40
2023-02-07T18:54:52.685Z,7.53
2023-02-07T18:57:19.289Z,8.05
2023-02-07T18:59:45.933Z,8.50
2023-02-07T19:02:13.388Z,6.88
2023-02-07T19:04:40.347Z,7.35
2023-02-07T19:07:07.077Z,7.13
2023-02-07T19:09:33.827Z,14.00
2023-02-07T19:12:00.594Z,12.30
2023-02-07T19:14:31.055Z,10.07
2023-02-07T19:19:27.571Z,8.82
2023-02-07T19:21:54.676Z,8.77
2023-02-07T19:24:23.577Z,8.68
2023-02-07T19:26:52.676Z,8.35
2023-02-07T19:29:27.912Z,9.15
2023-02-07T19:32:00.270Z,8.90
2023-02-07T19:34:27.758Z,8.45
2023-02-07T19:36:54.507Z,10.27
2023-02-07T19:39:21.644Z,10.68
2023-02-07T19:41:48.741Z,8.27
2023-02-07T19:44:15.505Z,9.52
2023-02-07T19:46:44.080Z,10.25
2023-02-07T19:49:12.622Z,11.95
2023-02-07T19:51:39.355Z,9.52
2023-02-07T19:54:06.116Z,9.07
2023-02-07T19:56:33.852Z,10.68
2023-02-07T19:59:03.537Z,10.68
2023-02-07T20:01:31.608Z,11.52
2023-02-07T20:03:58.387Z,11.90
2023-02-07T20:06:29.395Z,12.75
2023-02-07T20:08:57.683Z,14.50
2023-02-07T20:11:24.546Z,15.00
2023-02-07T20:13:54.134Z,13.45
2023-02-07T20:16:24.788Z,12.35
2023-02-07T20:18:53.008Z,11.43
2023-02-07T20:21:25.001Z,12.13
2023-02-07T20:23:53.670Z,13.30
2023-02-07T20:26:23.978Z,13.70
2023-02-07T20:28:51.110Z,12.98
2023-02-07T20:31:21.209Z,15.00
2023-02-07T20:33:47.889Z,16.85
2023-02-07T20:36:17.002Z,15.23
2023-02-07T20:38:45.783Z,15.48
2023-02-07T20:41:15.969Z,13.15
2023-02-07T20:43:43.290Z,12.18
2023-02-07T20:46:13.047Z,11.98
2023-02-07T20:48:41.387Z,11.75
2023-02-07T20:51:10.695Z,11.45
2023-02-07T20:56:17.401Z,9.57
2023-02-07T20:58:47.080Z,11.48
2023-02-07T21:01:17.247Z,10.70
2023-02-07T21:03:46.661Z,10.55
2023-02-07T21:06:13.417Z,10.85
2023-02-07T21:08:40.244Z,10.93
2023-02-07T21:11:08.350Z,10.65
2023-02-07T21:13:36.204Z,10.77
2023-02-07T21:16:04.513Z,11.07
2023-02-07T21:18:32.386Z,11.38
2023-02-07T21:20:59.335Z,12.43
2023-02-07T21:23:26.426Z,10.20
2023-02-07T21:25:54.053Z,12.43
2023-02-07T21:28:20.734Z,12.80
2023-02-07T21:30:47.413Z,13.13
2023-02-07T21:33:14.119Z,12.80
2023-02-07T21:35:40.732Z,13.32
2023-02-07T21:38:07.330Z,11.88
2023-02-07T21:40:34.388Z,12.02
2023-02-07T21:43:01.011Z,12.60
2023-02-07T21:45:27.733Z,13.07
2023-02-07T21:47:54.688Z,12.65
2023-02-07T21:50:21.370Z,11.10
2023-02-07T21:52:47.926Z,13.18
2023-02-07T21:55:14.493Z,12.82
2023-02-07T21:57:41.029Z,13.15
2023-02-07T22:00:08.330Z,13.07
2023-02-07T22:02:35.884Z,13.20
2023-02-07T22:05:02.510Z,13.52
2023-02-07T22:07:29.148Z,12.25
2023-02-07T22:09:55.722Z,14.63
2023-02-07T22:12:22.398Z,14.68
2023-02-07T22:14:49.070Z,11.73
2023-02-07T22:17:15.684Z,10.38
2023-02-07T22:19:42.390Z,10.30
2023-02-07T22:22:08.952Z,9.75
2023-02-07T22:24:35.564Z,10.13
2023-02-07T22:27:02.153Z,9.23
2023-02-07T22:29:28.692Z,9.95
2023-02-07T22:31:55.305Z,9.15
2023-02-07T22:34:21.886Z,9.70
2023-02-07T22:36:48.503Z,9.77
2023-02-07T22:39:17.488Z,10.13
2023-02-07T22:41:44.454Z,9.57
2023-02-07T22:44:11.210Z,10.05
2023-02-07T22:46:38.504Z,9.95
2023-02-07T22:49:05.102Z,10.45
2023-02-07T22:51:34.406Z,10.00
2023-02-07T22:54:05.580Z,9.80
2023-02-07T22:56:33.311Z,9.73
2023-02-07T22:59:00.263Z,11.07
2023-02-07T23:01:29.710Z,11.45
2023-02-07T23:03:57.248Z,13.13
2023-02-07T23:06:25.173Z,10.32
2023-02-07T23:08:52.211Z,10.15
2023-02-07T23:11:20.478Z,12.10
2023-02-07T23:13:47.134Z,9.57
2023-02-07T23:16:15.836Z,10.45
2023-02-07T23:18:43.252Z,11.27
2023-02-07T23:21:11.979Z,11.35
2023-02-07T23:23:39.331Z,11.15
2023-02-07T23:26:08.827Z,9.85
2023-02-07T23:28:37.328Z,10.55
2023-02-07T23:31:06.072Z,13.63
2023-02-07T23:33:33.329Z,10.98
2023-02-07T23:36:00.528Z,10.80
2023-02-07T23:38:27.426Z,10.82
2023-02-07T23:40:54.262Z,12.73
2023-02-07T23:43:21.070Z,10.90
2023-02-07T23:45:47.605Z,10.88
2023-02-07T23:48:14.330Z,12.18
2023-02-07T23:50:41.229Z,10.80
2023-02-07T23:53:08.403Z,10.80
2023-02-07T23:55:35.469Z,10.10
2023-02-07T23:58:02.306Z,10.90
